createdAt,value
2023-02-26T00:00:59.789Z,31.29
2023-02-26T00:01:59.777Z,30.60
2023-02-26T00:02:59.756Z,30.87
2023-02-26T00:03:59.658Z,29.38
2023-02-26T00:54:54.935Z,25.00
2023-02-26T00:55:55.894Z,25.00
2023-02-26T00:56:55.873Z,25.00
2023-02-26T00:57:55.861Z,25.00
2023-02-26T00:58:55.838Z,25.00
2023-02-26T00:59:55.821Z,25.00
2023-02-26T01:00:55.793Z,0.00
2023-02-26T01:01:55.761Z,0.00
2023-02-26T01:02:55.754Z,0.00
2023-02-26T01:03:55.790Z,0.00
2023-02-26T01:04:55.709Z,0.00
2023-02-26T01:05:55.670Z,0.00
2023-02-26T01:06:55.674Z,0.00
2023-02-26T01:07:55.620Z,17.19
2023-02-26T01:08:55.598Z,25.51
2023-02-26T01:09:55.571Z,25.00
2023-02-26T01:10:55.575Z,25.54
2023-02-26T01:11:55.540Z,25.43
2023-02-26T01:12:55.509Z,25.00
2023-02-26T01:13:55.492Z,26.17
2023-02-26T01:14:55.467Z,25.30
2023-02-26T01:15:55.561Z,25.00
2023-02-26T01:16:55.433Z,25.00
2023-02-26T01:17:55.406Z,28.20
2023-02-26T01:18:55.374Z,26.66
2023-02-26T01:19:55.360Z,25.40
2023-02-26T01:20:55.324Z,25.93
2023-02-26T01:21:55.321Z,27.49
2023-02-26T01:22:55.275Z,27.32
2023-02-26T01:23:55.239Z,25.32
2023-02-26T01:24:55.226Z,27.83
2023-02-26T01:25:55.207Z,25.16
2023-02-26T01:26:55.207Z,26.58
2023-02-26T01:27:55.156Z,25.04
2023-02-26T01:28:55.131Z,26.84
2023-02-26T01:29:55.109Z,25.25
2023-02-26T01:30:55.228Z,26.29
2023-02-26T01:31:55.446Z,25.93
2023-02-26T01:32:55.043Z,25.00
2023-02-26T01:33:55.014Z,27.23
2023-02-26T01:34:54.985Z,25.97
2023-02-26T01:35:54.970Z,25.35
2023-02-26T01:36:54.935Z,25.15
2023-02-26T01:37:54.911Z,28.13
2023-02-26T01:38:54.877Z,26.72
2023-02-26T01:39:54.836Z,27.25
2023-02-26T01:40:54.808Z,26.28
2023-02-26T01:41:54.836Z,25.00
2023-02-26T01:42:54.795Z,27.23
2023-02-26T01:43:54.729Z,27.17
2023-02-26T01:44:54.733Z,27.30
2023-02-26T01:45:54.686Z,25.19
2023-02-26T01:46:54.716Z,25.00
2023-02-26T01:47:54.623Z,27.23
2023-02-26T01:48:54.597Z,25.15
2023-02-26T01:49:54.586Z,27.04
2023-02-26T01:50:54.550Z,25.00
2023-02-26T01:51:54.529Z,26.67
2023-02-26T01:52:54.508Z,26.42
2023-02-26T01:53:54.489Z,28.00
2023-02-26T01:54:54.486Z,27.00
2023-02-26T01:55:54.446Z,26.20
2023-02-26T01:56:54.426Z,26.52
2023-02-26T01:57:54.483Z,28.04
2023-02-26T01:58:54.426Z,27.07
2023-02-26T01:59:54.372Z,25.14
2023-02-26T02:00:54.368Z,26.29
2023-02-26T02:01:54.330Z,28.57
2023-02-26T02:02:54.481Z,27.50
2023-02-26T02:03:54.313Z,29.05
2023-02-26T02:04:54.317Z,26.13
2023-02-26T02:05:54.275Z,26.48
2023-02-26T02:06:54.293Z,27.93
2023-02-26T02:07:54.272Z,28.94
2023-02-26T02:08:54.230Z,28.57
2023-02-26T02:09:54.208Z,28.26
2023-02-26T02:10:54.178Z,26.19
2023-02-26T02:11:54.186Z,29.94
2023-02-26T02:12:54.176Z,26.55
2023-02-26T02:13:54.119Z,27.87
2023-02-26T02:14:54.128Z,29.87
2023-02-26T02:15:54.080Z,30.48
2023-02-26T02:16:54.059Z,30.84
2023-02-26T02:17:54.151Z,29.43
2023-02-26T02:18:54.022Z,30.99
2023-02-26T02:19:53.998Z,28.90
2023-02-26T02:20:54.005Z,30.42
2023-02-26T02:21:53.947Z,32.96
2023-02-26T02:22:53.941Z,30.80
2023-02-26T02:23:53.912Z,30.35
2023-02-26T02:24:53.881Z,29.94
2023-02-26T02:25:53.898Z,31.38
2023-02-26T02:26:53.834Z,30.21
2023-02-26T02:27:53.810Z,30.97
2023-02-26T02:28:53.786Z,32.11
2023-02-26T02:29:53.747Z,29.70
2023-02-26T02:30:53.888Z,30.25
2023-02-26T02:31:53.944Z,31.27
2023-02-26T02:32:53.763Z,31.44
2023-02-26T02:33:53.656Z,31.85
2023-02-26T02:34:53.634Z,30.24
2023-02-26T02:35:53.670Z,31.43
2023-02-26T02:36:53.598Z,30.68
2023-02-26T02:37:53.566Z,30.70
2023-02-26T02:38:53.551Z,29.63
2023-02-26T02:39:53.562Z,28.35
2023-02-26T02:40:53.509Z,27.24
2023-02-26T02:41:53.507Z,26.15
2023-02-26T02:42:53.473Z,26.77
2023-02-26T02:43:53.453Z,27.36
2023-02-26T02:44:53.462Z,25.88
2023-02-26T02:45:54.200Z,26.23
2023-02-26T02:46:53.515Z,27.33
2023-02-26T02:47:53.334Z,27.65
2023-02-26T02:48:53.305Z,26.83
2023-02-26T02:49:53.276Z,27.94
2023-02-26T02:50:53.278Z,27.12
2023-02-26T02:51:53.229Z,28.22
2023-02-26T02:52:53.279Z,28.53
2023-02-26T02:53:53.175Z,27.38
2023-02-26T02:54:53.139Z,26.65
2023-02-26T02:55:53.124Z,25.43
2023-02-26T02:56:53.152Z,28.56
2023-02-26T02:57:53.131Z,26.13
2023-02-26T02:58:53.082Z,28.90
2023-02-26T02:59:53.077Z,27.60
2023-02-26T03:00:53.106Z,26.80
2023-02-26T03:01:53.018Z,27.53
2023-02-26T03:02:53.093Z,28.90
2023-02-26T03:03:52.983Z,26.30
2023-02-26T03:04:52.983Z,29.00
2023-02-26T03:05:52.938Z,28.83
2023-02-26T03:06:52.899Z,29.40
2023-02-26T03:07:52.905Z,30.98
2023-02-26T03:08:52.855Z,27.75
2023-02-26T03:09:52.827Z,28.48
2023-02-26T03:10:52.828Z,29.26
2023-02-26T03:11:52.789Z,29.82
2023-02-26T03:12:52.820Z,28.84
2023-02-26T03:13:52.747Z,30.22
2023-02-26T03:14:52.750Z,30.97
2023-02-26T03:15:52.727Z,27.94
2023-02-26T03:16:52.822Z,28.54
2023-02-26T03:17:52.713Z,28.15
2023-02-26T03:18:53.557Z,29.13
2023-02-26T03:19:52.642Z,25.35
2023-02-26T03:20:52.626Z,26.85
2023-02-26T03:21:52.595Z,28.12
2023-02-26T03:22:52.613Z,27.20
2023-02-26T03:23:52.573Z,26.72
2023-02-26T03:24:52.545Z,28.20
2023-02-26T03:25:52.561Z,26.86
2023-02-26T03:26:52.510Z,25.80
2023-02-26T03:27:52.491Z,26.53
2023-02-26T03:28:52.542Z,26.16
2023-02-26T03:29:52.458Z,27.60
2023-02-26T03:30:52.441Z,25.74
2023-02-26T03:31:52.583Z,26.04
2023-02-26T03:32:52.411Z,26.50
2023-02-26T03:33:52.405Z,28.98
2023-02-26T03:34:52.413Z,28.09
2023-02-26T03:35:52.377Z,26.51
2023-02-26T03:36:52.367Z,26.08
2023-02-26T03:37:52.352Z,25.98
2023-02-26T03:38:52.363Z,28.21
2023-02-26T03:39:52.359Z,28.41
2023-02-26T03:40:52.320Z,26.66
2023-02-26T03:41:52.305Z,26.46
2023-02-26T03:42:52.291Z,26.95
2023-02-26T03:43:52.288Z,28.54
2023-02-26T03:44:52.307Z,30.34
2023-02-26T03:45:52.309Z,27.79
2023-02-26T03:46:52.237Z,26.98
2023-02-26T03:47:52.223Z,30.47
2023-02-26T03:48:52.297Z,29.74
2023-02-26T03:49:52.254Z,29.66
2023-02-26T03:50:52.216Z,30.29
2023-02-26T03:51:52.163Z,29.57
2023-02-26T03:52:52.129Z,29.35
2023-02-26T03:53:52.130Z,28.22
2023-02-26T03:54:52.108Z,29.61
2023-02-26T03:55:52.094Z,29.24
2023-02-26T03:56:52.070Z,27.56
2023-02-26T03:57:52.045Z,29.27
2023-02-26T03:58:52.070Z,30.83
2023-02-26T03:59:52.021Z,30.57
2023-02-26T04:00:52.063Z,29.74
2023-02-26T04:01:51.988Z,30.40
2023-02-26T04:02:51.973Z,29.34
2023-02-26T04:03:51.951Z,31.52
2023-02-26T04:04:51.956Z,32.23
2023-02-26T04:05:51.907Z,32.88
2023-02-26T04:06:51.955Z,30.36
2023-02-26T04:07:51.874Z,29.84
2023-02-26T04:08:51.852Z,29.62
2023-02-26T04:09:51.858Z,29.15
2023-02-26T04:10:51.820Z,29.23
2023-02-26T04:11:51.796Z,29.77
2023-02-26T04:12:51.786Z,30.07
2023-02-26T04:13:51.765Z,29.81
2023-02-26T04:14:51.813Z,31.83
2023-02-26T04:15:51.729Z,28.66
2023-02-26T04:16:51.785Z,27.54
2023-02-26T04:17:51.706Z,26.17
2023-02-26T04:18:51.693Z,29.26
2023-02-26T04:19:51.718Z,29.59
2023-02-26T04:20:51.645Z,30.11
2023-02-26T04:21:51.636Z,28.47
2023-02-26T04:22:51.645Z,29.75
2023-02-26T04:23:51.604Z,27.24
2023-02-26T04:24:51.645Z,27.23
2023-02-26T04:25:51.611Z,28.33
2023-02-26T04:26:51.561Z,26.80
2023-02-26T04:27:51.545Z,29.08
2023-02-26T04:28:51.524Z,28.89
2023-02-26T04:29:51.537Z,29.76
2023-02-26T04:30:51.744Z,25.00
2023-02-26T04:31:51.525Z,30.17
2023-02-26T04:32:51.445Z,28.99
2023-02-26T04:33:51.420Z,30.05
2023-02-26T04:34:51.410Z,27.81
2023-02-26T04:35:51.387Z,27.19
2023-02-26T04:36:51.348Z,26.30
2023-02-26T04:37:51.337Z,26.97
2023-02-26T04:38:51.380Z,30.30
2023-02-26T04:39:51.313Z,27.33
2023-02-26T04:40:51.299Z,28.46
2023-02-26T04:41:51.246Z,26.57
2023-02-26T04:42:51.213Z,27.02
2023-02-26T04:43:51.203Z,27.44
2023-02-26T04:44:51.177Z,29.05
2023-02-26T04:45:51.291Z,28.84
2023-02-26T04:46:51.148Z,27.61
2023-02-26T04:47:51.115Z,26.86
2023-02-26T04:48:51.103Z,28.70
2023-02-26T04:49:51.094Z,30.92
2023-02-26T04:50:51.073Z,27.75
2023-02-26T04:51:51.170Z,28.33
2023-02-26T04:52:51.030Z,28.38
2023-02-26T04:53:51.036Z,26.51
2023-02-26T04:54:51.045Z,27.89
2023-02-26T04:55:52.406Z,25.06
2023-02-26T04:56:51.067Z,29.24
2023-02-26T04:57:51.007Z,28.61
2023-02-26T04:58:50.983Z,29.80
2023-02-26T04:59:50.971Z,27.83
2023-02-26T05:00:50.956Z,26.16
2023-02-26T05:01:50.975Z,26.73
2023-02-26T05:02:50.880Z,26.31
2023-02-26T05:03:50.854Z,26.50
2023-02-26T05:04:50.873Z,26.05
2023-02-26T05:05:50.816Z,28.06
2023-02-26T05:06:50.853Z,27.31
2023-02-26T05:07:50.781Z,28.62
2023-02-26T05:08:50.755Z,27.88
2023-02-26T05:09:50.751Z,27.64
2023-02-26T05:10:50.774Z,26.49
2023-02-26T05:11:50.695Z,26.31
2023-02-26T05:12:50.682Z,28.79
2023-02-26T05:13:50.651Z,28.25
2023-02-26T05:14:50.651Z,27.49
2023-02-26T05:15:50.663Z,26.08
2023-02-26T05:16:50.618Z,27.12
2023-02-26T05:17:50.599Z,27.67
2023-02-26T05:18:50.614Z,27.08
2023-02-26T05:19:50.562Z,28.49
2023-02-26T05:20:50.547Z,28.86
2023-02-26T05:21:50.565Z,30.03
2023-02-26T05:22:50.525Z,26.88
2023-02-26T05:23:50.505Z,25.61
2023-02-26T05:24:50.474Z,27.49
2023-02-26T05:25:50.522Z,26.72
2023-02-26T05:26:50.473Z,26.48
2023-02-26T05:27:50.444Z,27.72
2023-02-26T05:28:50.394Z,26.93
2023-02-26T05:29:51.089Z,29.09
2023-02-26T05:30:50.380Z,28.07
2023-02-26T05:31:50.430Z,29.55
2023-02-26T05:32:50.345Z,28.35
2023-02-26T05:33:50.293Z,27.64
2023-02-26T05:34:50.272Z,27.91
2023-02-26T05:35:50.300Z,26.11
2023-02-26T05:36:50.242Z,25.41
2023-02-26T05:37:50.225Z,25.44
2023-02-26T05:38:50.210Z,31.47
2023-02-26T05:39:50.180Z,26.81
2023-02-26T05:40:50.171Z,30.75
2023-02-26T05:41:50.130Z,27.45
2023-02-26T05:42:50.139Z,28.91
2023-02-26T05:43:50.096Z,26.92
2023-02-26T05:44:50.155Z,29.52
2023-02-26T05:45:50.058Z,27.34
2023-02-26T05:46:50.178Z,26.95
2023-02-26T05:47:50.029Z,26.79
2023-02-26T05:48:50.016Z,27.81
2023-02-26T05:49:50.123Z,27.42
2023-02-26T05:50:49.980Z,25.49
2023-02-26T05:51:49.962Z,25.97
2023-02-26T05:52:49.947Z,28.36
2023-02-26T05:53:49.920Z,26.68
2023-02-26T05:54:49.945Z,27.60
2023-02-26T05:55:49.898Z,25.78
2023-02-26T05:56:49.882Z,26.77
2023-02-26T05:57:49.876Z,29.10
2023-02-26T05:58:49.883Z,27.30
2023-02-26T05:59:49.876Z,28.71
2023-02-26T06:00:49.830Z,28.43
2023-02-26T06:01:49.846Z,27.37
2023-02-26T06:02:49.837Z,27.35
2023-02-26T06:03:49.775Z,26.75
2023-02-26T06:04:49.851Z,27.91
2023-02-26T06:05:49.754Z,25.26
2023-02-26T06:06:49.710Z,27.64
2023-02-26T06:07:49.698Z,27.36
2023-02-26T06:08:49.687Z,25.72
2023-02-26T06:09:49.670Z,25.15
2023-02-26T06:10:49.652Z,25.04
2023-02-26T06:11:49.666Z,26.64
2023-02-26T06:12:49.615Z,26.49
2023-02-26T06:13:49.608Z,28.32
2023-02-26T06:14:49.638Z,27.11
2023-02-26T06:15:49.621Z,28.10
2023-02-26T06:16:49.578Z,29.10
2023-02-26T06:17:50.105Z,27.01
2023-02-26T06:18:49.542Z,25.12
2023-02-26T06:19:49.563Z,26.11
2023-02-26T06:20:49.527Z,26.78
2023-02-26T06:21:49.501Z,27.21
2023-02-26T06:22:49.553Z,26.35
2023-02-26T06:23:49.437Z,28.57
2023-02-26T06:24:49.428Z,25.42
2023-02-26T06:25:49.441Z,26.17
2023-02-26T06:26:49.393Z,26.13
2023-02-26T06:27:49.383Z,28.34
2023-02-26T06:28:49.369Z,27.28
2023-02-26T06:29:49.355Z,26.64
2023-02-26T06:30:49.439Z,27.49
2023-02-26T06:31:49.447Z,28.30
2023-02-26T06:32:49.336Z,26.70
2023-02-26T06:33:49.309Z,27.49
2023-02-26T06:34:49.265Z,27.19
2023-02-26T06:35:49.283Z,27.94
2023-02-26T06:36:49.257Z,27.90
2023-02-26T06:37:49.221Z,25.79
2023-02-26T06:38:49.205Z,26.89
2023-02-26T06:39:49.193Z,28.65
2023-02-26T06:40:49.243Z,25.02
2023-02-26T06:41:49.165Z,26.86
2023-02-26T06:42:49.149Z,26.25
2023-02-26T06:43:49.138Z,25.38
2023-02-26T06:44:49.127Z,29.44
2023-02-26T06:45:49.190Z,27.16
2023-02-26T06:46:49.108Z,26.60
2023-02-26T06:47:49.103Z,26.85
2023-02-26T06:48:49.060Z,27.71
2023-02-26T06:49:49.048Z,27.88
2023-02-26T06:50:49.038Z,27.73
2023-02-26T06:51:49.022Z,31.83
2023-02-26T06:52:49.027Z,30.15
2023-02-26T06:53:48.989Z,27.91
2023-02-26T06:54:48.980Z,28.91
2023-02-26T06:55:48.973Z,27.55
2023-02-26T06:56:48.958Z,26.26
2023-02-26T06:57:49.006Z,25.06
2023-02-26T06:58:48.915Z,30.05
2023-02-26T06:59:48.926Z,28.22
2023-02-26T07:00:49.010Z,28.77
2023-02-26T07:01:48.867Z,27.19
2023-02-26T07:02:48.904Z,26.72
2023-02-26T07:03:48.845Z,26.86
2023-02-26T07:04:48.815Z,26.03
2023-02-26T07:05:48.797Z,28.19
2023-02-26T07:06:48.782Z,26.39
2023-02-26T07:07:48.800Z,25.00
2023-02-26T07:08:48.783Z,25.67
2023-02-26T07:09:48.717Z,27.59
2023-02-26T07:10:48.695Z,28.08
2023-02-26T07:11:48.679Z,29.96
2023-02-26T07:12:48.681Z,31.41
2023-02-26T07:13:48.621Z,31.80
2023-02-26T07:14:48.677Z,30.56
2023-02-26T07:15:48.567Z,32.02
2023-02-26T07:16:48.589Z,29.96
2023-02-26T07:17:48.534Z,30.29
2023-02-26T07:18:48.543Z,31.51
2023-02-26T07:19:48.496Z,29.28
2023-02-26T07:20:48.470Z,29.50
2023-02-26T07:21:48.443Z,32.15
2023-02-26T07:22:48.496Z,31.23
2023-02-26T07:23:48.408Z,31.61
2023-02-26T07:24:48.377Z,32.77
2023-02-26T07:25:48.364Z,27.86
2023-02-26T07:26:48.345Z,26.93
2023-02-26T07:27:48.379Z,30.20
2023-02-26T07:28:48.323Z,30.90
2023-02-26T07:29:48.293Z,28.94
2023-02-26T07:30:48.466Z,29.20
2023-02-26T07:31:48.396Z,28.49
2023-02-26T07:32:48.209Z,28.42
2023-02-26T07:33:48.222Z,27.78
2023-02-26T07:34:48.183Z,25.42
2023-02-26T07:35:48.138Z,28.56
2023-02-26T07:36:48.112Z,26.14
2023-02-26T07:37:48.096Z,28.43
2023-02-26T07:38:48.105Z,25.00
2023-02-26T07:39:48.070Z,29.94
2023-02-26T07:40:48.036Z,29.22
2023-02-26T07:41:48.014Z,28.07
2023-02-26T07:42:48.001Z,28.90
2023-02-26T07:43:47.999Z,25.00
2023-02-26T07:44:47.965Z,25.00
2023-02-26T07:45:47.969Z,27.20
2023-02-26T07:46:47.912Z,26.98
2023-02-26T07:47:47.891Z,28.23
2023-02-26T07:48:47.942Z,28.82
2023-02-26T07:49:47.852Z,28.67
2023-02-26T07:50:47.865Z,28.35
2023-02-26T07:51:47.821Z,27.37
2023-02-26T07:52:47.801Z,29.32
2023-02-26T07:53:47.821Z,27.29
2023-02-26T07:54:47.760Z,28.49
2023-02-26T07:55:47.761Z,27.80
2023-02-26T07:56:47.719Z,28.25
2023-02-26T07:57:47.740Z,27.89
2023-02-26T07:58:47.718Z,34.91
2023-02-26T07:59:47.657Z,29.58
2023-02-26T08:00:47.648Z,28.96
2023-02-26T08:01:47.711Z,29.56
2023-02-26T08:02:47.635Z,28.46
2023-02-26T08:03:47.617Z,26.08
2023-02-26T08:04:47.564Z,31.72
2023-02-26T08:05:47.544Z,31.59
2023-02-26T08:06:47.602Z,30.27
2023-02-26T08:07:47.514Z,30.42
2023-02-26T08:08:47.497Z,30.34
2023-02-26T08:09:47.499Z,29.92
2023-02-26T08:10:47.496Z,32.95
2023-02-26T08:11:47.457Z,34.34
2023-02-26T08:12:47.455Z,32.15
2023-02-26T08:13:47.461Z,30.21
2023-02-26T08:14:47.406Z,32.87
2023-02-26T08:15:47.486Z,30.15
2023-02-26T08:16:47.369Z,32.25
2023-02-26T08:17:47.371Z,27.38
2023-02-26T08:18:47.307Z,32.47
2023-02-26T08:19:47.286Z,28.54
2023-02-26T08:20:47.305Z,27.96
2023-02-26T08:21:47.913Z,32.00
2023-02-26T08:22:47.254Z,30.24
2023-02-26T08:23:47.219Z,30.57
2023-02-26T08:24:47.194Z,31.09
2023-02-26T08:25:47.229Z,28.76
2023-02-26T08:26:47.159Z,30.41
2023-02-26T08:27:47.124Z,29.10
2023-02-26T08:28:47.104Z,26.79
2023-02-26T08:29:47.098Z,31.47
2023-02-26T08:30:47.159Z,32.35
2023-02-26T08:31:47.210Z,30.53
2023-02-26T08:32:47.202Z,30.16
2023-02-26T08:33:47.056Z,30.17
2023-02-26T08:34:47.048Z,35.21
2023-02-26T08:35:47.048Z,30.25
2023-02-26T08:36:46.990Z,34.09
2023-02-26T08:37:46.968Z,32.78
2023-02-26T08:38:46.970Z,31.53
2023-02-26T08:39:46.958Z,34.39
2023-02-26T08:40:46.915Z,36.12
2023-02-26T08:41:46.908Z,35.25
2023-02-26T08:42:46.896Z,31.17
2023-02-26T08:43:46.901Z,31.39
2023-02-26T08:44:46.952Z,32.03
2023-02-26T08:45:46.873Z,33.19
2023-02-26T08:46:46.913Z,30.21
2023-02-26T08:47:56.390Z,33.04
2023-02-26T08:48:46.845Z,33.29
2023-02-26T08:49:46.813Z,34.25
2023-02-26T08:50:46.820Z,31.54
2023-02-26T08:51:46.760Z,32.99
2023-02-26T08:52:46.746Z,34.58
2023-02-26T08:53:46.735Z,33.52
2023-02-26T08:54:46.760Z,31.74
2023-02-26T08:55:46.809Z,32.34
2023-02-26T08:56:46.751Z,31.96
2023-02-26T08:57:46.686Z,33.13
2023-02-26T08:58:46.676Z,31.82
2023-02-26T08:59:46.662Z,28.11
2023-02-26T09:00:46.650Z,30.92
2023-02-26T09:01:46.768Z,31.89
2023-02-26T09:02:46.681Z,33.13
2023-02-26T09:03:46.586Z,31.77
2023-02-26T09:04:46.568Z,29.12
2023-02-26T09:05:46.557Z,31.51
2023-02-26T09:06:46.542Z,32.81
2023-02-26T09:07:46.562Z,30.96
2023-02-26T09:08:46.508Z,31.87
2023-02-26T09:09:46.492Z,33.06
2023-02-26T09:10:46.513Z,35.89
2023-02-26T09:11:46.447Z,30.06
2023-02-26T09:12:46.464Z,31.81
2023-02-26T09:13:46.412Z,31.61
2023-02-26T09:14:46.405Z,34.23
2023-02-26T09:15:46.388Z,29.30
2023-02-26T09:16:46.406Z,32.80
2023-02-26T09:17:46.401Z,33.31
2023-02-26T09:18:46.343Z,34.16
2023-02-26T09:19:46.328Z,30.83
2023-02-26T09:20:46.320Z,36.65
2023-02-26T09:21:46.280Z,38.40
2023-02-26T09:22:46.259Z,35.24
2023-02-26T09:23:46.256Z,36.06
2023-02-26T09:24:46.270Z,34.52
2023-02-26T09:25:46.230Z,33.52
2023-02-26T09:26:46.250Z,36.15
2023-02-26T09:27:46.205Z,35.13
2023-02-26T09:28:46.229Z,37.61
2023-02-26T09:29:46.191Z,39.39
2023-02-26T09:30:46.189Z,37.61
2023-02-26T09:31:46.383Z,38.02
2023-02-26T09:32:46.257Z,37.07
2023-02-26T09:33:46.170Z,39.40
2023-02-26T09:34:46.135Z,40.82
2023-02-26T09:35:46.104Z,38.73
2023-02-26T09:36:46.111Z,39.38
2023-02-26T09:37:46.095Z,40.56
2023-02-26T09:38:46.127Z,40.28
2023-02-26T09:39:46.090Z,39.97
2023-02-26T09:40:46.082Z,41.44
2023-02-26T09:41:46.036Z,43.07
2023-02-26T09:42:46.038Z,37.04
2023-02-26T09:43:46.020Z,43.61
2023-02-26T09:44:45.977Z,43.65
2023-02-26T09:45:46.052Z,42.31
2023-02-26T09:46:45.952Z,43.37
2023-02-26T09:47:45.926Z,37.99
2023-02-26T09:48:45.903Z,43.42
2023-02-26T09:49:45.891Z,41.00
2023-02-26T09:50:45.870Z,43.33
2023-02-26T09:51:45.857Z,41.42
2023-02-26T09:52:45.849Z,44.60
2023-02-26T09:53:45.840Z,42.00
2023-02-26T09:54:45.830Z,41.40
2023-02-26T09:55:45.811Z,42.35
2023-02-26T09:56:45.821Z,42.12
2023-02-26T09:57:45.800Z,44.00
2023-02-26T09:58:45.849Z,46.40
2023-02-26T09:59:45.773Z,43.80
2023-02-26T10:00:45.746Z,44.71
2023-02-26T10:01:45.759Z,43.27
2023-02-26T10:02:45.720Z,47.13
2023-02-26T10:03:45.716Z,46.64
2023-02-26T10:04:45.683Z,46.71
2023-02-26T10:05:45.676Z,44.96
2023-02-26T10:06:45.662Z,47.06
2023-02-26T10:07:45.619Z,50.43
2023-02-26T10:08:45.594Z,49.92
2023-02-26T10:09:45.605Z,47.83
2023-02-26T10:10:45.577Z,48.35
2023-02-26T10:11:45.576Z,45.81
2023-02-26T10:12:45.528Z,47.35
2023-02-26T10:13:57.104Z,52.81
2023-02-26T10:14:45.553Z,53.08
2023-02-26T10:15:45.478Z,53.42
2023-02-26T10:16:45.501Z,50.99
2023-02-26T10:17:45.444Z,49.59
2023-02-26T10:18:45.414Z,54.74
2023-02-26T10:19:45.438Z,53.92
2023-02-26T10:20:45.517Z,53.55
2023-02-26T10:21:45.351Z,52.62
2023-02-26T10:22:47.197Z,53.32
2023-02-26T10:23:45.337Z,53.54
2023-02-26T10:24:45.329Z,53.44
2023-02-26T10:25:45.278Z,53.37
2023-02-26T10:26:45.248Z,53.64
2023-02-26T10:27:45.223Z,57.57
2023-02-26T10:28:47.198Z,57.70
2023-02-26T10:29:45.200Z,57.88
2023-02-26T10:30:45.232Z,57.83
2023-02-26T10:31:45.261Z,54.94
2023-02-26T10:32:45.272Z,58.87
2023-02-26T10:33:45.108Z,56.65
2023-02-26T10:34:45.086Z,54.24
2023-02-26T10:35:45.070Z,57.20
2023-02-26T10:36:45.066Z,55.20
2023-02-26T10:37:45.026Z,53.99
2023-02-26T10:38:45.000Z,55.53
2023-02-26T10:39:45.015Z,56.77
2023-02-26T10:40:44.973Z,53.80
2023-02-26T10:41:44.979Z,56.73
2023-02-26T10:42:44.925Z,50.52
2023-02-26T10:43:44.912Z,57.40
2023-02-26T10:44:44.902Z,55.54
2023-02-26T10:45:44.932Z,59.61
2023-02-26T10:46:44.871Z,54.38
2023-02-26T10:47:44.803Z,55.96
2023-02-26T10:48:44.785Z,58.43
2023-02-26T10:49:44.766Z,59.39
2023-02-26T10:50:44.855Z,56.66
2023-02-26T10:51:44.747Z,55.32
2023-02-26T10:52:44.706Z,55.39
2023-02-26T10:53:44.679Z,60.59
2023-02-26T10:54:44.676Z,57.80
2023-02-26T10:55:44.669Z,59.11
2023-02-26T10:56:44.642Z,55.63
2023-02-26T10:57:44.618Z,57.57
2023-02-26T10:58:44.590Z,61.38
2023-02-26T10:59:44.566Z,62.28
2023-02-26T11:00:44.556Z,58.27
2023-02-26T11:01:44.679Z,58.07
2023-02-26T11:02:44.615Z,55.12
2023-02-26T11:03:44.516Z,56.56
2023-02-26T11:04:44.483Z,58.68
2023-02-26T11:05:44.478Z,55.53
2023-02-26T11:06:44.441Z,59.92
2023-02-26T11:07:44.448Z,57.91
2023-02-26T11:08:44.401Z,56.25
2023-02-26T11:09:44.389Z,58.76
2023-02-26T11:10:44.372Z,60.84
2023-02-26T11:11:44.375Z,58.61
2023-02-26T11:12:44.374Z,60.48
2023-02-26T11:13:44.325Z,60.49
2023-02-26T11:14:44.281Z,60.48
2023-02-26T11:15:44.273Z,60.22
2023-02-26T11:16:44.261Z,59.99
2023-02-26T11:17:44.226Z,60.06
2023-02-26T11:18:44.212Z,58.24
2023-02-26T11:19:44.162Z,61.05
2023-02-26T11:20:44.128Z,59.23
2023-02-26T11:21:44.111Z,59.91
2023-02-26T11:22:44.146Z,58.82
2023-02-26T11:23:44.059Z,57.75
2023-02-26T11:24:44.040Z,60.55
2023-02-26T11:25:44.016Z,57.18
2023-02-26T11:26:43.994Z,59.66
2023-02-26T11:27:43.990Z,58.30
2023-02-26T11:28:43.949Z,55.46
2023-02-26T11:29:43.910Z,59.05
2023-02-26T11:30:44.004Z,57.54
2023-02-26T11:31:43.922Z,55.06
2023-02-26T11:32:43.913Z,56.93
2023-02-26T11:33:43.813Z,57.33
2023-02-26T11:34:43.788Z,56.83
2023-02-26T11:35:43.744Z,57.95
2023-02-26T11:36:43.741Z,59.38
2023-02-26T11:37:43.717Z,55.71
2023-02-26T11:38:43.708Z,57.15
2023-02-26T11:39:43.624Z,55.51
2023-02-26T11:40:43.597Z,55.83
2023-02-26T11:41:43.587Z,58.86
2023-02-26T11:42:43.578Z,59.97
2023-02-26T11:43:44.953Z,60.80
2023-02-26T11:44:43.647Z,61.00
2023-02-26T11:45:43.643Z,61.27
2023-02-26T11:46:43.609Z,56.43
2023-02-26T11:47:43.587Z,59.95
2023-02-26T11:48:43.603Z,60.14
2023-02-26T11:49:43.551Z,61.72
2023-02-26T11:50:43.651Z,60.14
2023-02-26T11:51:43.512Z,61.50
2023-02-26T11:52:43.483Z,59.15
2023-02-26T11:53:43.492Z,58.48
2023-02-26T11:54:43.500Z,56.94
2023-02-26T11:55:43.420Z,64.18
2023-02-26T11:56:43.420Z,61.16
2023-02-26T11:57:43.391Z,59.50
2023-02-26T11:58:43.416Z,60.97
2023-02-26T11:59:43.335Z,60.46
2023-02-26T12:00:43.313Z,57.57
2023-02-26T12:01:43.318Z,58.64
2023-02-26T12:02:43.368Z,58.80
2023-02-26T12:03:43.381Z,60.47
2023-02-26T12:04:43.263Z,61.82
2023-02-26T12:05:43.242Z,58.17
2023-02-26T12:06:43.254Z,59.27
2023-02-26T12:07:43.214Z,55.81
2023-02-26T12:08:43.241Z,57.30
2023-02-26T12:09:43.182Z,60.25
2023-02-26T12:10:43.250Z,57.74
2023-02-26T12:11:43.150Z,58.62
2023-02-26T12:12:43.131Z,63.07
2023-02-26T12:13:43.122Z,59.42
2023-02-26T12:14:43.098Z,59.10
2023-02-26T12:15:43.161Z,62.12
2023-02-26T12:16:43.046Z,59.73
2023-02-26T12:17:43.032Z,59.82
2023-02-26T12:18:43.005Z,64.15
2023-02-26T12:19:42.984Z,58.22
2023-02-26T12:20:42.983Z,59.66
2023-02-26T12:21:42.929Z,64.84
2023-02-26T12:22:42.927Z,60.73
2023-02-26T12:23:42.876Z,59.02
2023-02-26T12:24:42.846Z,60.37
2023-02-26T12:25:42.827Z,62.28
2023-02-26T12:26:42.859Z,61.80
2023-02-26T12:27:42.778Z,60.26
2023-02-26T12:28:42.750Z,62.79
2023-02-26T12:29:42.755Z,60.13
2023-02-26T12:30:42.723Z,61.40
2023-02-26T12:31:42.825Z,61.79
2023-02-26T12:32:42.808Z,59.81
2023-02-26T12:33:42.661Z,61.74
2023-02-26T12:34:42.623Z,58.45
2023-02-26T12:35:42.604Z,62.43
2023-02-26T12:36:48.902Z,61.29
2023-02-26T12:37:42.561Z,61.59
2023-02-26T12:38:42.603Z,62.38
2023-02-26T12:39:42.532Z,63.05
2023-02-26T12:40:42.528Z,62.04
2023-02-26T12:41:42.525Z,65.35
2023-02-26T12:42:42.497Z,62.42
2023-02-26T12:43:42.454Z,62.29
2023-02-26T12:44:42.427Z,61.70
2023-02-26T12:45:42.414Z,60.91
2023-02-26T12:46:42.492Z,62.93
2023-02-26T12:47:42.375Z,62.77
2023-02-26T12:48:42.352Z,61.21
2023-02-26T12:49:42.330Z,61.84
2023-02-26T12:50:42.304Z,63.34
2023-02-26T12:51:42.276Z,60.39
2023-02-26T12:52:42.254Z,58.42
2023-02-26T12:53:42.246Z,61.89
2023-02-26T12:54:42.238Z,59.26
2023-02-26T12:55:42.179Z,61.07
2023-02-26T12:56:42.148Z,58.97
2023-02-26T12:57:42.144Z,61.01
2023-02-26T12:58:42.128Z,60.15
2023-02-26T12:59:42.143Z,62.94
2023-02-26T13:00:42.098Z,61.27
2023-02-26T13:01:55.977Z,58.09
2023-02-26T13:02:42.014Z,58.67
2023-02-26T13:03:42.002Z,60.03
2023-02-26T13:04:41.987Z,61.24
2023-02-26T13:05:41.935Z,60.76
2023-02-26T13:06:41.923Z,63.83
2023-02-26T13:07:41.892Z,67.69
2023-02-26T13:08:41.867Z,61.34
2023-02-26T13:09:41.863Z,65.64
2023-02-26T13:10:41.842Z,64.86
2023-02-26T13:11:41.793Z,64.40
2023-02-26T13:12:41.762Z,62.49
2023-02-26T13:13:41.740Z,64.15
2023-02-26T13:14:41.710Z,59.98
2023-02-26T13:15:41.708Z,62.80
2023-02-26T13:16:41.746Z,61.10
2023-02-26T13:17:41.624Z,61.22
2023-02-26T13:18:41.600Z,62.11
2023-02-26T13:19:41.597Z,61.08
2023-02-26T13:20:41.565Z,62.89
2023-02-26T13:21:41.539Z,60.31
2023-02-26T13:22:41.518Z,60.03
2023-02-26T13:23:41.518Z,59.79
2023-02-26T13:24:41.530Z,61.20
2023-02-26T13:25:41.515Z,62.55
2023-02-26T13:26:41.477Z,60.82
2023-02-26T13:27:41.432Z,63.06
2023-02-26T13:28:41.424Z,62.95
2023-02-26T13:29:41.368Z,63.68
2023-02-26T13:30:41.344Z,58.37
2023-02-26T13:31:41.681Z,61.01
2023-02-26T13:32:41.474Z,63.17
2023-02-26T13:33:41.257Z,64.73
2023-02-26T13:34:41.226Z,64.15
2023-02-26T13:35:41.194Z,62.91
2023-02-26T13:36:41.183Z,57.39
2023-02-26T13:37:41.137Z,59.03
2023-02-26T13:38:41.115Z,60.54
2023-02-26T13:39:41.173Z,61.65
2023-02-26T13:40:41.066Z,63.85
2023-02-26T13:41:41.041Z,63.79
2023-02-26T13:42:41.040Z,65.79